Grissom AFB, Indiana
Current Conditions -  °F | °C
As of 10:58 AM on Wednesday 28 Jan 2015 (Local Time) from KGUS Reporting Station
Clear Clear  
Wind Chill: 12°   Ceiling: Unl
Heat Index: 22°   Visibility: 10mi
Dew Point: 15°   Wind: 9mph
Humidity: 74%   Direction: 140°SE
Pressure: 30.31"   Gusts: NA
Location:  40.66°N, 86.15°W
Report Text: KGUS 281558Z AUTO 14008KT 10SM CLR M05/M09 A3031 RMK AO2 SLP282 T10531093
Loading
Personal Weather Stations






























Interactive Weather Map New forecast layout! Learn more

10-Day Weather Forecast

Advertisements
Track Severe Weather on mobile